createdAt,value
2018-07-09T00:00:17.780Z,100325.69
2018-07-09T00:02:52.213Z,100332.45
2018-07-09T00:05:28.375Z,100328.22
2018-07-09T00:08:01.628Z,100326.62
2018-07-09T00:10:46.654Z,100327.22
2018-07-09T00:13:21.712Z,100334.88
2018-07-09T00:15:55.927Z,100330.72
2018-07-09T00:18:29.352Z,100327.62
2018-07-09T00:21:05.881Z,100327.07
2018-07-09T00:23:40.596Z,100334.23
2018-07-09T00:26:15.163Z,100324.50
2018-07-09T00:28:52.246Z,100328.02
2018-07-09T00:31:25.567Z,100324.31
2018-07-09T00:34:09.143Z,100326.73
2018-07-09T00:36:46.003Z,100325.64
2018-07-09T00:39:24.325Z,100311.17
2018-07-09T00:41:58.273Z,100305.80
2018-07-09T00:44:38.554Z,100317.88
2018-07-09T00:47:13.712Z,100323.94
2018-07-09T00:49:47.047Z,100319.73
2018-07-09T00:52:20.518Z,100310.30
2018-07-09T00:54:55.764Z,100319.96
2018-07-09T00:57:28.880Z,100322.19
2018-07-09T01:00:02.101Z,100312.53
2018-07-09T01:02:38.033Z,100308.14
2018-07-09T01:05:12.057Z,100313.78
2018-07-09T01:07:49.176Z,100313.52
2018-07-09T01:10:22.439Z,100301.78
2018-07-09T01:12:57.006Z,100303.59
2018-07-09T01:15:31.504Z,100310.68
2018-07-09T01:18:06.237Z,100310.37
2018-07-09T01:20:39.355Z,100310.41
2018-07-09T01:23:14.765Z,100306.59
2018-07-09T01:25:48.531Z,100309.39
2018-07-09T01:28:23.420Z,100294.78
2018-07-09T01:30:56.413Z,100301.52
2018-07-09T01:33:30.390Z,100309.70
2018-07-09T01:36:03.825Z,100310.15
2018-07-09T01:38:37.129Z,100304.05
2018-07-09T01:41:11.241Z,100314.11
2018-07-09T01:43:45.998Z,100308.97
2018-07-09T01:46:19.581Z,100303.59
2018-07-09T01:48:55.229Z,100304.27
2018-07-09T01:51:29.737Z,100301.16
2018-07-09T01:54:03.108Z,100307.05
2018-07-09T01:56:37.721Z,100313.16
2018-07-09T01:59:10.890Z,100316.25
2018-07-09T02:01:44.349Z,100304.47
2018-07-09T02:04:19.540Z,100301.09
2018-07-09T02:06:54.222Z,100298.94
2018-07-09T02:09:28.645Z,100308.37
2018-07-09T02:12:03.310Z,100308.95
2018-07-09T02:14:36.625Z,100303.81
2018-07-09T02:17:12.903Z,100305.70
2018-07-09T02:19:46.210Z,100301.05
2018-07-09T02:22:19.408Z,100310.27
2018-07-09T02:24:53.216Z,100299.42
2018-07-09T02:27:26.460Z,100296.77
2018-07-09T02:29:59.834Z,100304.75
2018-07-09T02:32:34.206Z,100303.96
2018-07-09T02:35:07.484Z,100299.13
2018-07-09T02:37:40.723Z,100301.72
2018-07-09T02:40:13.934Z,100305.94
2018-07-09T02:42:48.235Z,100308.08
2018-07-09T02:45:22.511Z,100298.25
2018-07-09T02:47:55.685Z,100307.45
2018-07-09T02:50:29.931Z,100311.89
2018-07-09T02:53:03.632Z,100312.55
2018-07-09T02:55:36.791Z,100312.00
2018-07-09T02:58:10.431Z,100317.44
2018-07-09T03:00:43.688Z,100316.45
2018-07-09T03:03:16.841Z,100313.05
2018-07-09T03:05:54.386Z,100322.07
2018-07-09T03:08:29.465Z,100318.87
2018-07-09T03:11:03.015Z,100316.30
2018-07-09T03:13:37.460Z,100326.80
2018-07-09T03:16:10.821Z,100323.48
2018-07-09T03:18:44.976Z,100324.48
2018-07-09T03:21:22.211Z,100322.63
2018-07-09T03:23:56.685Z,100317.92
2018-07-09T03:26:29.867Z,100323.91
2018-07-09T03:29:03.811Z,100317.38
2018-07-09T03:31:36.713Z,100320.58
2018-07-09T03:34:10.245Z,100324.41
2018-07-09T03:36:43.439Z,100327.04
2018-07-09T03:39:17.442Z,100327.46
2018-07-09T03:41:50.828Z,100320.30
2018-07-09T03:44:25.356Z,100333.43
2018-07-09T03:47:03.867Z,100336.70
2018-07-09T03:49:36.832Z,100334.96
2018-07-09T03:52:10.001Z,100334.73
2018-07-09T03:54:44.281Z,100335.06
2018-07-09T03:57:18.460Z,100333.59
2018-07-09T03:59:51.684Z,100321.70
2018-07-09T04:02:26.288Z,100319.98
2018-07-09T04:04:59.464Z,100325.42
2018-07-09T04:07:32.608Z,100321.84
2018-07-09T04:10:06.257Z,100317.19
2018-07-09T04:12:44.651Z,100315.76
2018-07-09T04:15:22.459Z,100305.75
2018-07-09T04:17:55.693Z,100322.00
2018-07-09T04:20:29.422Z,100319.73
2018-07-09T04:23:02.866Z,100322.52
2018-07-09T04:25:36.610Z,100325.84
2018-07-09T04:28:09.796Z,100330.94
2018-07-09T04:30:43.020Z,100337.19
2018-07-09T04:33:16.457Z,100346.75
2018-07-09T04:35:51.377Z,100341.91
2018-07-09T04:38:24.526Z,100345.56
2018-07-09T04:40:57.698Z,100343.27
2018-07-09T04:43:32.292Z,100337.15
2018-07-09T04:46:05.848Z,100343.52
2018-07-09T04:48:39.171Z,100339.21
2018-07-09T04:51:12.353Z,100336.77
2018-07-09T04:53:45.625Z,100331.83
2018-07-09T04:56:20.112Z,100339.31
2018-07-09T04:58:53.585Z,100341.51
2018-07-09T05:01:26.778Z,100346.57
2018-07-09T05:04:00.300Z,100343.69
2018-07-09T05:09:16.707Z,100349.88
2018-07-09T05:11:50.578Z,100343.06
2018-07-09T05:14:24.099Z,100326.06
2018-07-09T05:16:58.846Z,100346.09
2018-07-09T05:19:32.203Z,100341.69
2018-07-09T05:22:05.829Z,100349.95
2018-07-09T05:24:39.101Z,100345.55
2018-07-09T05:27:12.262Z,100350.13
2018-07-09T05:29:48.422Z,100350.31
2018-07-09T05:32:23.532Z,100347.77
2018-07-09T05:35:00.107Z,100344.45
2018-07-09T05:37:33.359Z,100340.47
2018-07-09T05:40:07.489Z,100337.41
2018-07-09T05:42:41.265Z,100353.28
2018-07-09T05:45:16.381Z,100343.03
2018-07-09T05:47:49.542Z,100342.31
2018-07-09T05:50:23.105Z,100350.53
2018-07-09T05:52:56.571Z,100351.63
2018-07-09T05:55:30.211Z,100349.98
2018-07-09T05:58:24.626Z,100352.15
2018-07-09T06:00:58.679Z,100347.97
2018-07-09T06:03:32.769Z,100345.45
2018-07-09T06:06:06.143Z,100350.92
2018-07-09T06:08:40.397Z,100343.95
2018-07-09T06:11:14.444Z,100335.84
2018-07-09T06:13:48.292Z,100346.32
2018-07-09T06:16:22.330Z,100354.55
2018-07-09T06:18:56.416Z,100351.08
2018-07-09T06:21:29.868Z,100346.52
2018-07-09T06:24:04.316Z,100348.38
2018-07-09T06:26:38.868Z,100351.95
2018-07-09T06:29:23.662Z,100347.98
2018-07-09T06:32:07.631Z,100351.37
2018-07-09T06:34:41.069Z,100353.67
2018-07-09T06:37:15.433Z,100360.06
2018-07-09T06:39:52.812Z,100360.37
2018-07-09T06:42:40.054Z,100352.20
2018-07-09T06:47:41.840Z,100363.91
2018-07-09T06:50:15.245Z,100360.47
2018-07-09T06:52:48.926Z,100365.00
2018-07-09T06:55:22.316Z,100364.16
2018-07-09T06:57:57.240Z,100362.23
2018-07-09T07:00:38.741Z,100365.55
2018-07-09T07:03:13.363Z,100368.40
2018-07-09T07:05:49.542Z,100365.92
2018-07-09T07:11:13.521Z,100362.05
2018-07-09T07:13:48.122Z,100366.02
2018-07-09T07:16:23.062Z,100356.22
2018-07-09T07:18:56.631Z,100345.63
2018-07-09T07:21:29.894Z,100353.83
2018-07-09T07:24:05.355Z,100347.11
2018-07-09T07:26:39.354Z,100347.31
2018-07-09T07:29:13.595Z,100346.55
2018-07-09T07:31:47.108Z,100344.53
2018-07-09T07:34:21.479Z,100358.42
2018-07-09T07:36:54.871Z,100343.89
2018-07-09T07:39:29.618Z,100345.69
2018-07-09T07:42:03.763Z,100349.41
2018-07-09T07:44:37.611Z,100345.51
2018-07-09T07:47:10.925Z,100335.73
2018-07-09T07:49:44.139Z,100346.05
2018-07-09T07:52:17.378Z,100341.25
2018-07-09T07:54:51.468Z,100333.15
2018-07-09T07:57:27.467Z,100334.03
2018-07-09T08:00:01.584Z,100340.41
2018-07-09T08:02:35.602Z,100343.62
2018-07-09T08:07:36.879Z,100331.52
2018-07-09T08:10:24.356Z,100334.59
2018-07-09T08:13:26.863Z,100334.31
2018-07-09T08:15:36.857Z,100329.94
2018-07-09T08:18:13.963Z,100332.88
2018-07-09T08:20:47.554Z,100330.34
2018-07-09T08:23:21.409Z,100335.87
2018-07-09T08:25:56.372Z,100334.24
2018-07-09T08:28:31.513Z,100341.87
2018-07-09T08:31:05.172Z,100327.64
2018-07-09T08:33:38.928Z,100343.11
2018-07-09T08:36:13.043Z,100338.92
2018-07-09T08:39:11.861Z,100329.53
2018-07-09T08:42:00.919Z,100329.94
2018-07-09T08:44:38.138Z,100336.88
2018-07-09T08:47:32.097Z,100326.74
2018-07-09T08:50:14.688Z,100327.25
2018-07-09T08:52:50.528Z,100334.41
2018-07-09T08:57:40.032Z,100327.88
2018-07-09T09:00:18.346Z,100321.05
2018-07-09T09:02:54.563Z,100320.73
2018-07-09T09:05:28.129Z,100323.73
2018-07-09T09:08:10.287Z,100323.81
2018-07-09T09:10:45.168Z,100329.88
2018-07-09T09:13:18.464Z,100328.98
2018-07-09T09:15:52.004Z,100322.93
2018-07-09T09:18:28.713Z,100320.28
2018-07-09T09:21:03.836Z,100313.48
2018-07-09T09:23:53.093Z,100313.25
2018-07-09T09:31:20.568Z,100305.90
2018-07-09T09:33:55.655Z,100302.03
2018-07-09T09:36:31.980Z,100301.83
2018-07-09T09:39:07.623Z,100309.23
2018-07-09T09:41:45.121Z,100288.14
2018-07-09T09:44:40.858Z,100299.16
2018-07-09T09:51:41.400Z,100298.86
2018-07-09T09:54:26.463Z,100297.56
2018-07-09T09:57:32.271Z,100290.95
2018-07-09T10:00:40.409Z,100284.33
2018-07-09T10:03:31.559Z,100278.35
2018-07-09T10:31:26.462Z,100266.98
2018-07-09T10:40:29.619Z,100271.48
2018-07-09T10:43:04.670Z,100250.65
2018-07-09T10:50:30.711Z,100252.42
2018-07-09T10:53:30.340Z,100250.69
2018-07-09T10:56:07.409Z,100251.09
2018-07-09T11:01:46.773Z,100253.75
2018-07-09T11:04:20.651Z,100248.25
2018-07-09T11:06:57.503Z,100246.84
2018-07-09T11:09:37.986Z,100239.58
2018-07-09T11:12:23.435Z,100228.20
2018-07-09T11:14:57.814Z,100228.56
2018-07-09T11:17:34.385Z,100233.21
2018-07-09T11:20:10.848Z,100234.58
2018-07-09T11:22:55.217Z,100232.55
2018-07-09T11:25:30.500Z,100244.61
2018-07-09T11:28:05.605Z,100235.95
2018-07-09T11:30:42.500Z,100217.44
2018-07-09T11:33:19.478Z,100227.05
2018-07-09T11:35:54.334Z,100231.05
2018-07-09T11:38:30.915Z,100223.89
2018-07-09T11:41:32.155Z,100219.40
2018-07-09T11:47:53.498Z,100220.27
2018-07-09T11:50:26.911Z,100218.50
2018-07-09T11:53:02.258Z,100209.77
2018-07-09T11:55:38.502Z,100206.82
2018-07-09T11:58:13.411Z,100212.69
2018-07-09T12:00:49.959Z,100206.91
2018-07-09T12:03:27.488Z,100208.87
2018-07-09T12:06:01.436Z,100207.48
2018-07-09T12:08:42.158Z,100209.33
2018-07-09T12:11:15.432Z,100208.42
2018-07-09T12:13:51.406Z,100202.57
2018-07-09T12:16:27.413Z,100192.86
2018-07-09T12:19:02.918Z,100197.70
2018-07-09T12:21:37.270Z,100197.92
2018-07-09T12:24:11.209Z,100188.95
2018-07-09T12:26:45.868Z,100197.63
2018-07-09T12:29:21.585Z,100198.18
2018-07-09T12:31:58.980Z,100199.83
2018-07-09T12:34:35.503Z,100201.29
2018-07-09T12:37:10.756Z,100200.30
2018-07-09T12:39:45.197Z,100198.65
2018-07-09T12:43:13.514Z,100193.66
2018-07-09T12:45:47.826Z,100195.83
2018-07-09T12:51:10.361Z,100203.66
2018-07-09T12:54:19.641Z,100202.80
2018-07-09T12:56:55.374Z,100195.34
2018-07-09T12:59:31.877Z,100187.34
2018-07-09T13:02:08.444Z,100194.56
2018-07-09T13:04:53.010Z,100193.05
2018-07-09T13:07:28.824Z,100187.03
2018-07-09T13:11:18.916Z,100180.11
2018-07-09T13:13:53.545Z,100166.95
2018-07-09T13:16:45.269Z,100173.16
2018-07-09T13:22:32.686Z,100169.85
2018-07-09T13:30:16.685Z,100175.01
2018-07-09T13:32:50.100Z,100157.30
2018-07-09T13:35:24.505Z,100163.73
2018-07-09T13:37:59.450Z,100158.58
2018-07-09T13:40:33.033Z,100164.65
2018-07-09T13:43:07.423Z,100152.00
2018-07-09T13:45:42.626Z,100159.63
2018-07-09T13:48:16.471Z,100153.95
2018-07-09T13:50:51.349Z,100146.44
2018-07-09T13:53:24.776Z,100155.03
2018-07-09T13:56:08.401Z,100147.22
2018-07-09T13:58:41.986Z,100139.58
2018-07-09T14:01:16.068Z,100139.02
2018-07-09T14:03:49.467Z,100151.51
2018-07-09T14:06:23.448Z,100145.87
2018-07-09T14:09:01.648Z,100140.64
2018-07-09T14:11:36.418Z,100143.91
2018-07-09T14:14:26.647Z,100148.56
2018-07-09T14:17:02.085Z,100135.42
2018-07-09T14:20:41.582Z,100133.88
2018-07-09T14:23:16.527Z,100133.75
2018-07-09T14:25:50.493Z,100134.75
2018-07-09T14:28:25.148Z,100128.41
2018-07-09T14:31:01.473Z,100130.85
2018-07-09T14:33:39.195Z,100128.57
2018-07-09T14:36:14.769Z,100117.28
2018-07-09T14:38:51.667Z,100122.53
2018-07-09T14:41:25.204Z,100128.81
2018-07-09T14:44:00.527Z,100121.16
2018-07-09T14:46:36.529Z,100113.20
2018-07-09T14:49:11.351Z,100108.13
2018-07-09T14:51:47.120Z,100115.67
2018-07-09T14:54:25.307Z,100119.98
2018-07-09T14:57:00.222Z,100120.52
2018-07-09T14:59:35.070Z,100116.53
2018-07-09T15:02:09.198Z,100117.16
2018-07-09T15:04:42.496Z,100124.63
2018-07-09T15:07:17.307Z,100117.56
2018-07-09T15:09:55.582Z,100112.23
2018-07-09T15:12:30.765Z,100111.56
2018-07-09T15:15:08.184Z,100106.63
2018-07-09T15:17:41.892Z,100095.19
2018-07-09T15:20:17.476Z,100092.38
2018-07-09T15:22:51.561Z,100093.95
2018-07-09T15:25:26.180Z,100085.54
2018-07-09T15:28:00.250Z,100098.13
2018-07-09T15:31:05.464Z,100092.69
2018-07-09T15:33:41.710Z,100077.97
2018-07-09T15:36:16.653Z,100083.56
2018-07-09T15:38:51.618Z,100071.49
2018-07-09T15:41:25.821Z,100082.94
2018-07-09T15:44:02.295Z,100090.39
2018-07-09T15:46:36.030Z,100082.64
2018-07-09T15:49:12.323Z,100079.99
2018-07-09T15:51:46.630Z,100086.91
2018-07-09T15:54:25.607Z,100082.30
2018-07-09T15:57:01.772Z,100073.20
2018-07-09T15:59:37.997Z,100075.61
2018-07-09T16:02:11.986Z,100070.87
2018-07-09T16:04:51.023Z,100066.38
2018-07-09T16:07:28.121Z,100065.97
2018-07-09T16:10:12.037Z,100066.39
2018-07-09T16:12:47.224Z,100072.80
2018-07-09T16:15:23.362Z,100078.42
2018-07-09T16:17:57.825Z,100074.64
2018-07-09T16:21:01.859Z,100064.83
2018-07-09T16:23:35.217Z,100071.88
2018-07-09T16:26:11.655Z,100064.55
2018-07-09T16:32:31.802Z,100071.13
2018-07-09T16:35:10.394Z,100060.20
2018-07-09T16:39:53.243Z,100058.74
2018-07-09T16:42:29.873Z,100063.28
2018-07-09T16:45:08.557Z,100065.62
2018-07-09T16:47:43.093Z,100068.97
2018-07-09T16:50:17.462Z,100064.93
2018-07-09T16:52:52.487Z,100062.73
2018-07-09T16:55:25.518Z,100062.23
2018-07-09T16:58:01.543Z,100053.89
2018-07-09T17:00:35.687Z,100058.23
2018-07-09T17:03:10.668Z,100049.06
2018-07-09T17:05:45.265Z,100060.52
2018-07-09T17:08:19.949Z,100055.05
2018-07-09T17:10:53.913Z,100071.80
2018-07-09T17:13:33.145Z,100064.09
2018-07-09T17:16:07.210Z,100059.22
2018-07-09T17:18:42.481Z,100061.88
2018-07-09T17:21:23.255Z,100062.80
2018-07-09T17:23:58.900Z,100047.53
2018-07-09T17:26:35.562Z,100059.80
2018-07-09T17:29:09.436Z,100064.25
2018-07-09T17:31:49.761Z,100066.61
2018-07-09T17:34:23.709Z,100071.80
2018-07-09T17:36:58.625Z,100067.44
2018-07-09T17:39:32.234Z,100072.77
2018-07-09T17:42:07.461Z,100065.84
2018-07-09T17:44:42.650Z,100067.20
2018-07-09T17:47:17.177Z,100068.98
2018-07-09T17:49:53.578Z,100068.45
2018-07-09T17:52:29.858Z,100075.05
2018-07-09T17:55:02.757Z,100073.39
2018-07-09T17:57:39.322Z,100086.39
2018-07-09T18:00:14.553Z,100076.59
2018-07-09T18:02:53.035Z,100068.95
2018-07-09T18:05:29.318Z,100066.27
2018-07-09T18:08:10.455Z,100073.01
2018-07-09T18:10:47.744Z,100060.63
2018-07-09T18:13:22.589Z,100057.94
2018-07-09T18:15:56.370Z,100067.69
2018-07-09T18:18:37.635Z,100060.54
2018-07-09T18:21:15.477Z,100062.06
2018-07-09T18:23:55.377Z,100057.75
2018-07-09T18:26:30.124Z,100064.27
2018-07-09T18:29:13.428Z,100053.98
2018-07-09T18:31:54.904Z,100051.76
2018-07-09T18:34:32.084Z,100057.86
2018-07-09T18:37:08.221Z,100043.89
2018-07-09T18:39:43.342Z,100054.03
2018-07-09T18:42:17.063Z,100050.11
2018-07-09T18:44:52.980Z,100048.23
2018-07-09T18:47:30.720Z,100051.09
2018-07-09T18:50:03.811Z,100050.91
2018-07-09T18:52:39.249Z,100045.98
2018-07-09T18:55:15.773Z,100041.76
2018-07-09T18:57:51.657Z,100043.44
2018-07-09T19:00:32.435Z,100052.30
2018-07-09T19:03:08.593Z,100045.02
2018-07-09T19:05:52.419Z,100038.80
2018-07-09T19:08:30.411Z,100043.85
2018-07-09T19:11:06.534Z,100043.66
2018-07-09T19:13:42.541Z,100043.46
2018-07-09T19:16:20.215Z,100040.95
2018-07-09T19:19:06.261Z,100041.53
2018-07-09T19:21:52.211Z,100049.54
2018-07-09T19:24:28.529Z,100051.49
2018-07-09T19:27:01.678Z,100047.45
2018-07-09T19:29:35.152Z,100047.72
2018-07-09T19:32:07.922Z,100054.03
2018-07-09T19:37:19.905Z,100061.41
2018-07-09T19:39:52.254Z,100054.83
2018-07-09T19:42:25.026Z,100063.35
2018-07-09T19:44:58.497Z,100060.86
2018-07-09T19:47:30.323Z,100064.98
2018-07-09T19:50:06.244Z,100064.99
2018-07-09T19:52:39.609Z,100070.73
2018-07-09T19:55:20.618Z,100066.09
2018-07-09T19:57:53.428Z,100061.42
2018-07-09T20:00:30.337Z,100062.78
2018-07-09T20:03:02.845Z,100060.59
2018-07-09T20:05:36.197Z,100064.17
2018-07-09T20:08:10.366Z,100066.92
2018-07-09T20:13:51.633Z,100055.97
2018-07-09T20:17:30.021Z,100062.79
2018-07-09T20:20:01.860Z,100064.13
2018-07-09T20:22:34.337Z,100062.48
2018-07-09T20:25:12.565Z,100050.95
2018-07-09T20:27:44.438Z,100067.42
2018-07-09T20:30:21.081Z,100069.07
2018-07-09T20:32:53.599Z,100071.81
2018-07-09T20:35:25.580Z,100067.13
2018-07-09T20:37:58.365Z,100062.53
2018-07-09T20:40:31.357Z,100061.98
2018-07-09T20:43:03.772Z,100058.16
2018-07-09T20:45:37.224Z,100055.95
2018-07-09T20:48:10.341Z,100057.61
2018-07-09T20:50:43.185Z,99971.83
2018-07-09T20:53:16.154Z,100052.12
2018-07-09T20:55:49.083Z,100054.02
2018-07-09T20:58:23.991Z,100053.77
2018-07-09T21:00:55.537Z,100059.51
2018-07-09T21:03:31.047Z,99961.96
2018-07-09T21:06:04.029Z,100056.52
2018-07-09T21:08:37.350Z,100040.89
2018-07-09T21:11:10.506Z,100050.19
2018-07-09T21:13:42.149Z,100043.09
2018-07-09T21:16:18.652Z,100048.55
2018-07-09T21:18:50.816Z,100055.40
2018-07-09T21:21:32.999Z,100053.49
2018-07-09T21:24:05.218Z,100055.16
2018-07-09T21:26:39.272Z,100046.36
2018-07-09T21:29:17.481Z,100038.70
2018-07-09T21:31:52.377Z,100031.29
2018-07-09T21:34:25.069Z,100031.59
2018-07-09T21:36:56.634Z,100037.34
2018-07-09T21:39:30.768Z,100035.67
2018-07-09T21:42:02.555Z,100028.00
2018-07-09T21:44:35.358Z,100031.28
2018-07-09T21:47:07.757Z,100033.50
2018-07-09T21:49:39.400Z,100029.66
2018-07-09T21:52:13.852Z,100026.64
2018-07-09T21:54:48.471Z,100017.86
2018-07-09T21:57:22.378Z,100017.30
2018-07-09T21:59:55.919Z,100016.22
2018-07-09T22:02:28.142Z,100011.55
2018-07-09T22:05:00.738Z,100010.17
2018-07-09T22:07:33.239Z,100010.75
2018-07-09T22:10:05.090Z,100007.73
2018-07-09T22:12:38.287Z,100004.19
2018-07-09T22:15:13.488Z,100007.20
2018-07-09T22:17:45.694Z,100006.62
2018-07-09T22:20:17.627Z,100015.64
2018-07-09T22:22:49.388Z,100010.43
2018-07-09T22:25:21.058Z,100002.22
2018-07-09T22:27:53.591Z,100006.66
2018-07-09T22:30:32.104Z,100000.61
2018-07-09T22:33:09.520Z,100001.41
2018-07-09T22:35:43.467Z,100001.70
2018-07-09T22:38:17.974Z,100000.31
2018-07-09T22:40:53.158Z,99995.64
2018-07-09T22:43:37.377Z,100000.86
2018-07-09T22:46:12.559Z,100000.28
2018-07-09T22:48:46.110Z,100000.02
2018-07-09T22:51:19.227Z,99990.73
2018-07-09T22:53:53.100Z,99990.17
2018-07-09T22:56:28.968Z,99986.61
2018-07-09T22:59:01.954Z,99990.74
2018-07-09T23:01:35.312Z,99988.56
2018-07-09T23:04:08.497Z,99984.15
2018-07-09T23:06:43.280Z,99986.08
2018-07-09T23:10:24.299Z,99982.80
2018-07-09T23:13:21.766Z,99990.98
2018-07-09T23:16:04.272Z,99981.13
2018-07-09T23:20:56.773Z,99988.82
2018-07-09T23:23:28.527Z,99981.09
2018-07-09T23:26:02.027Z,99980.60
2018-07-09T23:28:33.458Z,99960.35
2018-07-09T23:31:04.785Z,99971.27
2018-07-09T23:33:36.258Z,99963.48
2018-07-09T23:36:09.411Z,99963.82
2018-07-09T23:38:42.390Z,99963.23
2018-07-09T23:41:12.575Z,99969.25
2018-07-09T23:43:43.532Z,99958.06
2018-07-09T23:46:13.542Z,99961.08
2018-07-09T23:48:43.450Z,99958.41
2018-07-09T23:51:13.206Z,99964.61
2018-07-09T23:53:47.995Z,99963.24
2018-07-09T23:58:34.464Z,99956.97
